sensor_id;sensor_type;location;lat;lon;timestamp;P1;durP1;ratioP1;P2;durP2;ratioP2
32874;SDS011;40468;42.128;24.750;2024-01-15T00:01:29;104.70;;;39.47;;
32874;SDS011;40468;42.128;24.750;2024-01-15T00:03:00;107.22;;;39.63;;
32874;SDS011;40468;42.128;24.750;2024-01-15T00:04:35;114.03;;;39.88;;
32874;SDS011;40468;42.128;24.750;2024-01-15T00:06:07;106.68;;;39.63;;
32874;SDS011;40468;42.128;24.750;2024-01-15T00:07:39;119.85;;;41.03;;
32874;SDS011;40468;42.128;24.750;2024-01-15T00:09:10;121.13;;;42.08;;
32874;SDS011;40468;42.128;24.750;2024-01-15T00:10:43;124.60;;;42.45;;
32874;SDS011;40468;42.128;24.750;2024-01-15T00:12:13;115.38;;;41.00;;
32874;SDS011;40468;42.128;24.750;2024-01-15T00:13:45;110.95;;;38.97;;
32874;SDS011;40468;42.128;24.750;2024-01-15T00:15:16;106.60;;;42.22;;
32874;SDS011;40468;42.128;24.750;2024-01-15T00:16:48;124.68;;;41.47;;
32874;SDS011;40468;42.128;24.750;2024-01-15T00:18:20;122.22;;;40.42;;
32874;SDS011;40468;42.128;24.750;2024-01-15T00:19:52;127.18;;;41.42;;
32874;SDS011;40468;42.128;24.750;2024-01-15T00:21:23;133.13;;;40.95;;
32874;SDS011;40468;42.128;24.750;2024-01-15T00:22:55;114.63;;;42.42;;
32874;SDS011;40468;42.128;24.750;2024-01-15T00:24:26;119.13;;;39.45;;
32874;SDS011;40468;42.128;24.750;2024-01-15T00:25:58;129.30;;;42.92;;
32874;SDS011;40468;42.128;24.750;2024-01-15T00:29:02;107.28;;;35.22;;
32874;SDS011;40468;42.128;24.750;2024-01-15T00:30:33;111.28;;;39.85;;
32874;SDS011;40468;42.128;24.750;2024-01-15T00:32:05;113.75;;;40.28;;
32874;SDS011;40468;42.128;24.750;2024-01-15T00:33:36;120.22;;;41.25;;
32874;SDS011;40468;42.128;24.750;2024-01-15T00:35:08;115.20;;;41.88;;
32874;SDS011;40468;42.128;24.750;2024-01-15T00:36:39;122.78;;;40.45;;
32874;SDS011;40468;42.128;24.750;2024-01-15T00:38:10;109.65;;;41.30;;
32874;SDS011;40468;42.128;24.750;2024-01-15T00:39:41;121.88;;;41.08;;
32874;SDS011;40468;42.128;24.750;2024-01-15T00:41:15;108.28;;;39.00;;
32874;SDS011;40468;42.128;24.750;2024-01-15T00:42:45;109.23;;;40.20;;
32874;SDS011;40468;42.128;24.750;2024-01-15T00:44:17;112.88;;;40.72;;
32874;SDS011;40468;42.128;24.750;2024-01-15T00:45:48;104.72;;;40.05;;
32874;SDS011;40468;42.128;24.750;2024-01-15T00:47:20;124.97;;;42.55;;
32874;SDS011;40468;42.128;24.750;2024-01-15T00:48:51;101.57;;;40.42;;
32874;SDS011;40468;42.128;24.750;2024-01-15T00:50:22;112.57;;;38.22;;
32874;SDS011;40468;42.128;24.750;2024-01-15T00:51:53;118.63;;;41.30;;
32874;SDS011;40468;42.128;24.750;2024-01-15T00:53:25;105.28;;;39.55;;
32874;SDS011;40468;42.128;24.750;2024-01-15T00:54:56;123.80;;;40.53;;
32874;SDS011;40468;42.128;24.750;2024-01-15T00:56:29;118.55;;;39.13;;
32874;SDS011;40468;42.128;24.750;2024-01-15T00:58:00;111.50;;;38.58;;
32874;SDS011;40468;42.128;24.750;2024-01-15T00:59:32;105.88;;;38.05;;
32874;SDS011;40468;42.128;24.750;2024-01-15T01:01:02;97.07;;;35.70;;
32874;SDS011;40468;42.128;24.750;2024-01-15T01:02:34;104.43;;;37.53;;
32874;SDS011;40468;42.128;24.750;2024-01-15T01:04:05;104.13;;;34.38;;
32874;SDS011;40468;42.128;24.750;2024-01-15T01:05:37;91.28;;;35.97;;
32874;SDS011;40468;42.128;24.750;2024-01-15T01:07:08;92.70;;;33.78;;
32874;SDS011;40468;42.128;24.750;2024-01-15T01:08:40;82.85;;;33.40;;
32874;SDS011;40468;42.128;24.750;2024-01-15T01:10:11;89.00;;;34.47;;
32874;SDS011;40468;42.128;24.750;2024-01-15T01:11:44;93.10;;;34.20;;
32874;SDS011;40468;42.128;24.750;2024-01-15T01:13:14;89.43;;;33.30;;
32874;SDS011;40468;42.128;24.750;2024-01-15T01:14:46;98.80;;;34.67;;
32874;SDS011;40468;42.128;24.750;2024-01-15T01:16:17;96.18;;;34.58;;
32874;SDS011;40468;42.128;24.750;2024-01-15T01:17:49;86.97;;;33.67;;
32874;SDS011;40468;42.128;24.750;2024-01-15T01:19:20;100.45;;;35.05;;
32874;SDS011;40468;42.128;24.750;2024-01-15T01:20:51;89.20;;;34.63;;
32874;SDS011;40468;42.128;24.750;2024-01-15T01:22:23;94.15;;;35.45;;
32874;SDS011;40468;42.128;24.750;2024-01-15T01:23:54;94.28;;;34.25;;
32874;SDS011;40468;42.128;24.750;2024-01-15T01:25:26;103.95;;;35.97;;
32874;SDS011;40468;42.128;24.750;2024-01-15T01:26:58;93.88;;;34.42;;
32874;SDS011;40468;42.128;24.750;2024-01-15T01:28:30;101.22;;;34.08;;
32874;SDS011;40468;42.128;24.750;2024-01-15T01:30:01;95.05;;;33.60;;
32874;SDS011;40468;42.128;24.750;2024-01-15T01:31:33;86.63;;;31.67;;
32874;SDS011;40468;42.128;24.750;2024-01-15T01:33:04;91.13;;;32.97;;
32874;SDS011;40468;42.128;24.750;2024-01-15T01:34:39;96.10;;;31.40;;
32874;SDS011;40468;42.128;24.750;2024-01-15T01:36:12;85.72;;;31.35;;
32874;SDS011;40468;42.128;24.750;2024-01-15T01:37:44;86.22;;;32.08;;
32874;SDS011;40468;42.128;24.750;2024-01-15T01:39:15;95.50;;;32.40;;
32874;SDS011;40468;42.128;24.750;2024-01-15T01:40:47;88.22;;;32.65;;
32874;SDS011;40468;42.128;24.750;2024-01-15T01:42:19;76.97;;;31.17;;
32874;SDS011;40468;42.128;24.750;2024-01-15T01:43:51;98.65;;;35.17;;
32874;SDS011;40468;42.128;24.750;2024-01-15T01:45:21;89.35;;;33.90;;
32874;SDS011;40468;42.128;24.750;2024-01-15T01:46:53;78.80;;;32.50;;
32874;SDS011;40468;42.128;24.750;2024-01-15T01:48:24;94.55;;;33.75;;
32874;SDS011;40468;42.128;24.750;2024-01-15T01:49:56;93.38;;;32.28;;
32874;SDS011;40468;42.128;24.750;2024-01-15T01:51:27;81.03;;;34.30;;
32874;SDS011;40468;42.128;24.750;2024-01-15T01:52:59;101.15;;;33.95;;
32874;SDS011;40468;42.128;24.750;2024-01-15T01:54:31;99.30;;;35.72;;
32874;SDS011;40468;42.128;24.750;2024-01-15T01:56:04;91.50;;;35.65;;
32874;SDS011;40468;42.128;24.750;2024-01-15T01:57:37;105.18;;;38.15;;
32874;SDS011;40468;42.128;24.750;2024-01-15T02:00:41;99.18;;;32.75;;
32874;SDS011;40468;42.128;24.750;2024-01-15T02:02:13;90.80;;;33.25;;
32874;SDS011;40468;42.128;24.750;2024-01-15T02:03:45;112.35;;;36.35;;
32874;SDS011;40468;42.128;24.750;2024-01-15T02:05:18;102.10;;;35.53;;
32874;SDS011;40468;42.128;24.750;2024-01-15T02:06:50;106.03;;;35.30;;
32874;SDS011;40468;42.128;24.750;2024-01-15T02:08:21;97.13;;;34.60;;
32874;SDS011;40468;42.128;24.750;2024-01-15T02:09:53;103.55;;;36.70;;
32874;SDS011;40468;42.128;24.750;2024-01-15T02:11:24;107.18;;;37.83;;
32874;SDS011;40468;42.128;24.750;2024-01-15T02:12:57;93.07;;;34.60;;
32874;SDS011;40468;42.128;24.750;2024-01-15T02:14:28;85.45;;;32.47;;
32874;SDS011;40468;42.128;24.750;2024-01-15T02:16:00;76.32;;;29.55;;
32874;SDS011;40468;42.128;24.750;2024-01-15T02:17:32;82.78;;;30.17;;
32874;SDS011;40468;42.128;24.750;2024-01-15T02:19:02;88.78;;;32.53;;
32874;SDS011;40468;42.128;24.750;2024-01-15T02:20:34;74.13;;;27.85;;
32874;SDS011;40468;42.128;24.750;2024-01-15T02:22:05;71.20;;;27.00;;
32874;SDS011;40468;42.128;24.750;2024-01-15T02:23:38;64.50;;;24.95;;
32874;SDS011;40468;42.128;24.750;2024-01-15T02:25:09;54.65;;;22.75;;
32874;SDS011;40468;42.128;24.750;2024-01-15T02:26:41;57.60;;;23.27;;
32874;SDS011;40468;42.128;24.750;2024-01-15T02:28:13;59.10;;;21.80;;
32874;SDS011;40468;42.128;24.750;2024-01-15T02:29:46;56.30;;;20.95;;
32874;SDS011;40468;42.128;24.750;2024-01-15T02:31:17;53.83;;;22.33;;
32874;SDS011;40468;42.128;24.750;2024-01-15T02:32:48;53.58;;;23.80;;
32874;SDS011;40468;42.128;24.750;2024-01-15T02:34:19;53.05;;;23.10;;
32874;SDS011;40468;42.128;24.750;2024-01-15T02:35:51;57.08;;;22.52;;
32874;SDS011;40468;42.128;24.750;2024-01-15T02:37:22;58.35;;;23.20;;
32874;SDS011;40468;42.128;24.750;2024-01-15T02:38:55;62.67;;;21.98;;
32874;SDS011;40468;42.128;24.750;2024-01-15T02:40:26;61.20;;;23.15;;
32874;SDS011;40468;42.128;24.750;2024-01-15T02:41:58;54.92;;;22.95;;
32874;SDS011;40468;42.128;24.750;2024-01-15T02:43:28;59.92;;;24.20;;
32874;SDS011;40468;42.128;24.750;2024-01-15T02:45:00;62.75;;;24.13;;
32874;SDS011;40468;42.128;24.750;2024-01-15T02:46:31;58.65;;;23.02;;
32874;SDS011;40468;42.128;24.750;2024-01-15T02:48:03;57.90;;;22.73;;
32874;SDS011;40468;42.128;24.750;2024-01-15T02:49:34;56.95;;;23.08;;
32874;SDS011;40468;42.128;24.750;2024-01-15T02:51:06;64.55;;;23.48;;
32874;SDS011;40468;42.128;24.750;2024-01-15T02:52:36;58.63;;;23.25;;
32874;SDS011;40468;42.128;24.750;2024-01-15T02:54:10;58.20;;;23.33;;
32874;SDS011;40468;42.128;24.750;2024-01-15T02:55:40;61.47;;;23.15;;
32874;SDS011;40468;42.128;24.750;2024-01-15T02:57:12;60.10;;;22.67;;
32874;SDS011;40468;42.128;24.750;2024-01-15T02:58:43;58.63;;;22.80;;
32874;SDS011;40468;42.128;24.750;2024-01-15T03:00:15;54.58;;;22.73;;
32874;SDS011;40468;42.128;24.750;2024-01-15T03:01:46;58.65;;;23.40;;
32874;SDS011;40468;42.128;24.750;2024-01-15T03:03:18;53.65;;;22.58;;
32874;SDS011;40468;42.128;24.750;2024-01-15T03:04:48;65.90;;;23.67;;
32874;SDS011;40468;42.128;24.750;2024-01-15T03:06:20;67.20;;;22.42;;
32874;SDS011;40468;42.128;24.750;2024-01-15T03:07:52;59.83;;;23.15;;
32874;SDS011;40468;42.128;24.750;2024-01-15T03:09:24;62.58;;;23.35;;
32874;SDS011;40468;42.128;24.750;2024-01-15T03:10:56;56.42;;;23.08;;
32874;SDS011;40468;42.128;24.750;2024-01-15T03:12:29;60.40;;;23.73;;
32874;SDS011;40468;42.128;24.750;2024-01-15T03:14:00;59.22;;;22.80;;
32874;SDS011;40468;42.128;24.750;2024-01-15T03:15:31;64.35;;;25.15;;
32874;SDS011;40468;42.128;24.750;2024-01-15T03:17:02;60.92;;;23.70;;
32874;SDS011;40468;42.128;24.750;2024-01-15T03:18:34;67.00;;;26.08;;
32874;SDS011;40468;42.128;24.750;2024-01-15T03:20:06;74.97;;;26.70;;
32874;SDS011;40468;42.128;24.750;2024-01-15T03:21:37;72.63;;;27.02;;
32874;SDS011;40468;42.128;24.750;2024-01-15T03:23:09;62.50;;;26.13;;
32874;SDS011;40468;42.128;24.750;2024-01-15T03:24:42;66.25;;;25.38;;
32874;SDS011;40468;42.128;24.750;2024-01-15T03:26:13;61.83;;;25.48;;
32874;SDS011;40468;42.128;24.750;2024-01-15T03:27:45;64.07;;;25.42;;
32874;SDS011;40468;42.128;24.750;2024-01-15T03:29:17;67.57;;;25.42;;
32874;SDS011;40468;42.128;24.750;2024-01-15T03:30:48;68.45;;;25.55;;
32874;SDS011;40468;42.128;24.750;2024-01-15T03:32:19;71.13;;;26.15;;
32874;SDS011;40468;42.128;24.750;2024-01-15T03:33:50;56.05;;;24.75;;
32874;SDS011;40468;42.128;24.750;2024-01-15T03:35:22;60.15;;;25.65;;
32874;SDS011;40468;42.128;24.750;2024-01-15T03:36:53;52.78;;;22.63;;
32874;SDS011;40468;42.128;24.750;2024-01-15T03:38:27;54.90;;;23.08;;
32874;SDS011;40468;42.128;24.750;2024-01-15T03:39:59;63.15;;;24.33;;
32874;SDS011;40468;42.128;24.750;2024-01-15T03:41:32;65.05;;;25.70;;
32874;SDS011;40468;42.128;24.750;2024-01-15T03:43:03;59.90;;;23.10;;
32874;SDS011;40468;42.128;24.750;2024-01-15T03:44:35;58.30;;;23.60;;
32874;SDS011;40468;42.128;24.750;2024-01-15T03:46:06;59.08;;;23.67;;
32874;SDS011;40468;42.128;24.750;2024-01-15T03:47:38;64.80;;;23.60;;
32874;SDS011;40468;42.128;24.750;2024-01-15T03:49:10;56.65;;;22.30;;
32874;SDS011;40468;42.128;24.750;2024-01-15T03:50:42;60.75;;;24.02;;
32874;SDS011;40468;42.128;24.750;2024-01-15T03:52:13;58.17;;;22.75;;
32874;SDS011;40468;42.128;24.750;2024-01-15T03:53:44;58.67;;;21.60;;
32874;SDS011;40468;42.128;24.750;2024-01-15T03:55:17;51.53;;;21.90;;
32874;SDS011;40468;42.128;24.750;2024-01-15T03:56:48;47.97;;;21.58;;
32874;SDS011;40468;42.128;24.750;2024-01-15T03:58:19;58.17;;;23.05;;
32874;SDS011;40468;42.128;24.750;2024-01-15T03:59:51;55.75;;;21.63;;
32874;SDS011;40468;42.128;24.750;2024-01-15T04:01:22;54.22;;;21.20;;
32874;SDS011;40468;42.128;24.750;2024-01-15T04:02:53;51.17;;;20.88;;
32874;SDS011;40468;42.128;24.750;2024-01-15T04:04:24;52.72;;;22.17;;
32874;SDS011;40468;42.128;24.750;2024-01-15T04:05:56;50.33;;;21.20;;
32874;SDS011;40468;42.128;24.750;2024-01-15T04:07:28;54.60;;;21.00;;
32874;SDS011;40468;42.128;24.750;2024-01-15T04:08:59;48.25;;;19.92;;
32874;SDS011;40468;42.128;24.750;2024-01-15T04:10:32;56.05;;;22.83;;
32874;SDS011;40468;42.128;24.750;2024-01-15T04:12:03;49.72;;;20.55;;
32874;SDS011;40468;42.128;24.750;2024-01-15T04:13:35;50.65;;;20.13;;
32874;SDS011;40468;42.128;24.750;2024-01-15T04:15:06;55.80;;;20.95;;
32874;SDS011;40468;42.128;24.750;2024-01-15T04:16:38;51.58;;;19.88;;
32874;SDS011;40468;42.128;24.750;2024-01-15T04:18:08;51.28;;;19.90;;
32874;SDS011;40468;42.128;24.750;2024-01-15T04:19:40;59.47;;;21.30;;
32874;SDS011;40468;42.128;24.750;2024-01-15T04:21:14;56.28;;;20.20;;
32874;SDS011;40468;42.128;24.750;2024-01-15T04:22:45;58.33;;;21.13;;
32874;SDS011;40468;42.128;24.750;2024-01-15T04:24:16;52.08;;;21.00;;
32874;SDS011;40468;42.128;24.750;2024-01-15T04:25:50;55.67;;;20.85;;
32874;SDS011;40468;42.128;24.750;2024-01-15T04:27:21;47.65;;;21.13;;
32874;SDS011;40468;42.128;24.750;2024-01-15T04:28:52;54.97;;;21.63;;
32874;SDS011;40468;42.128;24.750;2024-01-15T04:30:24;47.65;;;20.95;;
32874;SDS011;40468;42.128;24.750;2024-01-15T04:31:55;49.20;;;20.83;;
32874;SDS011;40468;42.128;24.750;2024-01-15T04:33:27;51.22;;;19.85;;
32874;SDS011;40468;42.128;24.750;2024-01-15T04:34:57;56.83;;;23.25;;
32874;SDS011;40468;42.128;24.750;2024-01-15T04:36:29;51.30;;;21.40;;
32874;SDS011;40468;42.128;24.750;2024-01-15T04:38:01;54.72;;;21.90;;
32874;SDS011;40468;42.128;24.750;2024-01-15T04:39:33;57.90;;;21.85;;
32874;SDS011;40468;42.128;24.750;2024-01-15T04:41:05;62.30;;;22.65;;
32874;SDS011;40468;42.128;24.750;2024-01-15T04:42:37;56.72;;;22.80;;
32874;SDS011;40468;42.128;24.750;2024-01-15T04:44:08;52.80;;;22.05;;
32874;SDS011;40468;42.128;24.750;2024-01-15T04:45:39;56.22;;;21.48;;
32874;SDS011;40468;42.128;24.750;2024-01-15T04:47:10;57.60;;;23.23;;
32874;SDS011;40468;42.128;24.750;2024-01-15T04:48:42;60.95;;;23.10;;
32874;SDS011;40468;42.128;24.750;2024-01-15T04:50:13;60.67;;;23.35;;
32874;SDS011;40468;42.128;24.750;2024-01-15T04:51:45;59.80;;;23.77;;
32874;SDS011;40468;42.128;24.750;2024-01-15T04:53:16;59.05;;;24.80;;
32874;SDS011;40468;42.128;24.750;2024-01-15T04:54:47;71.13;;;27.27;;
32874;SDS011;40468;42.128;24.750;2024-01-15T04:56:21;67.27;;;27.10;;
32874;SDS011;40468;42.128;24.750;2024-01-15T04:57:52;56.15;;;22.50;;
32874;SDS011;40468;42.128;24.750;2024-01-15T04:59:24;63.78;;;23.33;;
32874;SDS011;40468;42.128;24.750;2024-01-15T05:00:54;57.08;;;22.67;;
32874;SDS011;40468;42.128;24.750;2024-01-15T05:02:26;60.67;;;23.55;;
32874;SDS011;40468;42.128;24.750;2024-01-15T05:03:58;57.00;;;23.95;;
32874;SDS011;40468;42.128;24.750;2024-01-15T05:05:29;53.67;;;22.73;;
32874;SDS011;40468;42.128;24.750;2024-01-15T05:07:01;61.58;;;24.08;;
32874;SDS011;40468;42.128;24.750;2024-01-15T05:08:32;64.00;;;24.65;;
32874;SDS011;40468;42.128;24.750;2024-01-15T05:10:04;62.10;;;23.40;;
32874;SDS011;40468;42.128;24.750;2024-01-15T05:11:36;62.42;;;23.50;;
32874;SDS011;40468;42.128;24.750;2024-01-15T05:13:08;59.47;;;24.70;;
32874;SDS011;40468;42.128;24.750;2024-01-15T05:14:39;73.70;;;25.60;;
32874;SDS011;40468;42.128;24.750;2024-01-15T05:16:11;65.13;;;26.83;;
32874;SDS011;40468;42.128;24.750;2024-01-15T05:17:41;62.30;;;26.27;;
32874;SDS011;40468;42.128;24.750;2024-01-15T05:19:13;65.47;;;24.10;;
32874;SDS011;40468;42.128;24.750;2024-01-15T05:20:44;71.50;;;25.40;;
32874;SDS011;40468;42.128;24.750;2024-01-15T05:22:16;67.55;;;25.63;;
32874;SDS011;40468;42.128;24.750;2024-01-15T05:23:47;58.45;;;26.05;;
32874;SDS011;40468;42.128;24.750;2024-01-15T05:25:19;64.28;;;24.98;;
32874;SDS011;40468;42.128;24.750;2024-01-15T05:26:51;63.80;;;25.95;;
32874;SDS011;40468;42.128;24.750;2024-01-15T05:28:23;61.58;;;25.83;;
32874;SDS011;40468;42.128;24.750;2024-01-15T05:29:53;114.85;;;45.15;;
32874;SDS011;40468;42.128;24.750;2024-01-15T05:31:25;79.03;;;31.15;;
32874;SDS011;40468;42.128;24.750;2024-01-15T05:32:56;119.22;;;44.38;;
32874;SDS011;40468;42.128;24.750;2024-01-15T05:34:30;88.38;;;36.42;;
32874;SDS011;40468;42.128;24.750;2024-01-15T05:36:01;68.65;;;27.85;;
32874;SDS011;40468;42.128;24.750;2024-01-15T05:37:32;81.43;;;27.23;;
32874;SDS011;40468;42.128;24.750;2024-01-15T05:39:03;66.13;;;26.63;;
32874;SDS011;40468;42.128;24.750;2024-01-15T05:40:35;73.68;;;28.52;;
32874;SDS011;40468;42.128;24.750;2024-01-15T05:42:08;83.07;;;30.25;;
32874;SDS011;40468;42.128;24.750;2024-01-15T05:43:39;71.28;;;29.20;;
32874;SDS011;40468;42.128;24.750;2024-01-15T05:45:11;73.65;;;28.73;;
32874;SDS011;40468;42.128;24.750;2024-01-15T05:46:42;77.47;;;28.33;;
32874;SDS011;40468;42.128;24.750;2024-01-15T05:48:13;67.18;;;28.08;;
32874;SDS011;40468;42.128;24.750;2024-01-15T05:49:44;64.22;;;27.90;;
32874;SDS011;40468;42.128;24.750;2024-01-15T05:51:16;71.70;;;28.02;;
32874;SDS011;40468;42.128;24.750;2024-01-15T05:52:47;69.70;;;28.60;;
32874;SDS011;40468;42.128;24.750;2024-01-15T05:54:19;75.43;;;28.73;;
32874;SDS011;40468;42.128;24.750;2024-01-15T05:55:50;75.78;;;28.88;;
32874;SDS011;40468;42.128;24.750;2024-01-15T05:57:24;74.93;;;29.23;;
32874;SDS011;40468;42.128;24.750;2024-01-15T05:58:54;72.00;;;29.30;;
32874;SDS011;40468;42.128;24.750;2024-01-15T06:00:26;73.18;;;27.38;;
32874;SDS011;40468;42.128;24.750;2024-01-15T06:01:57;74.80;;;28.63;;
32874;SDS011;40468;42.128;24.750;2024-01-15T06:03:29;66.97;;;27.83;;
32874;SDS011;40468;42.128;24.750;2024-01-15T06:05:01;60.67;;;25.20;;
32874;SDS011;40468;42.128;24.750;2024-01-15T06:06:33;62.17;;;25.67;;
32874;SDS011;40468;42.128;24.750;2024-01-15T06:08:08;55.97;;;23.17;;
32874;SDS011;40468;42.128;24.750;2024-01-15T06:09:49;63.65;;;24.50;;
32874;SDS011;40468;42.128;24.750;2024-01-15T06:11:20;69.05;;;27.05;;
32874;SDS011;40468;42.128;24.750;2024-01-15T06:12:53;70.40;;;25.65;;
32874;SDS011;40468;42.128;24.750;2024-01-15T06:14:25;66.13;;;26.65;;
32874;SDS011;40468;42.128;24.750;2024-01-15T06:15:56;61.03;;;25.17;;
32874;SDS011;40468;42.128;24.750;2024-01-15T06:17:28;63.65;;;24.58;;
32874;SDS011;40468;42.128;24.750;2024-01-15T06:18:59;64.20;;;24.05;;
32874;SDS011;40468;42.128;24.750;2024-01-15T06:20:31;62.55;;;24.73;;
32874;SDS011;40468;42.128;24.750;2024-01-15T06:22:03;64.65;;;25.13;;
32874;SDS011;40468;42.128;24.750;2024-01-15T06:23:34;69.57;;;26.08;;
32874;SDS011;40468;42.128;24.750;2024-01-15T06:25:06;69.55;;;27.58;;
32874;SDS011;40468;42.128;24.750;2024-01-15T06:26:38;69.95;;;25.73;;
32874;SDS011;40468;42.128;24.750;2024-01-15T06:28:11;77.75;;;26.48;;
32874;SDS011;40468;42.128;24.750;2024-01-15T06:29:44;65.85;;;26.83;;
32874;SDS011;40468;42.128;24.750;2024-01-15T06:31:16;65.72;;;26.02;;
32874;SDS011;40468;42.128;24.750;2024-01-15T06:32:48;70.55;;;27.48;;
32874;SDS011;40468;42.128;24.750;2024-01-15T06:34:20;74.55;;;27.48;;
32874;SDS011;40468;42.128;24.750;2024-01-15T06:35:52;67.38;;;27.30;;
32874;SDS011;40468;42.128;24.750;2024-01-15T06:37:23;65.10;;;24.48;;
32874;SDS011;40468;42.128;24.750;2024-01-15T06:38:55;64.63;;;25.50;;
32874;SDS011;40468;42.128;24.750;2024-01-15T06:40:26;54.28;;;24.40;;
32874;SDS011;40468;42.128;24.750;2024-01-15T06:41:58;57.50;;;23.63;;
32874;SDS011;40468;42.128;24.750;2024-01-15T06:43:30;64.20;;;23.20;;
32874;SDS011;40468;42.128;24.750;2024-01-15T06:46:34;52.33;;;20.42;;
32874;SDS011;40468;42.128;24.750;2024-01-15T06:48:06;55.45;;;20.52;;
32874;SDS011;40468;42.128;24.750;2024-01-15T06:49:37;52.63;;;21.85;;
32874;SDS011;40468;42.128;24.750;2024-01-15T06:51:09;51.88;;;20.83;;
32874;SDS011;40468;42.128;24.750;2024-01-15T06:52:40;53.75;;;21.45;;
32874;SDS011;40468;42.128;24.750;2024-01-15T06:54:12;56.05;;;21.90;;
32874;SDS011;40468;42.128;24.750;2024-01-15T06:55:42;48.72;;;20.33;;
32874;SDS011;40468;42.128;24.750;2024-01-15T06:57:15;59.90;;;22.42;;
32874;SDS011;40468;42.128;24.750;2024-01-15T06:58:47;85.05;;;36.95;;
32874;SDS011;40468;42.128;24.750;2024-01-15T07:00:19;64.40;;;32.55;;
32874;SDS011;40468;42.128;24.750;2024-01-15T07:01:50;78.40;;;32.50;;
32874;SDS011;40468;42.128;24.750;2024-01-15T07:03:22;57.60;;;24.92;;
32874;SDS011;40468;42.128;24.750;2024-01-15T07:04:53;56.67;;;24.40;;
32874;SDS011;40468;42.128;24.750;2024-01-15T07:06:24;56.58;;;23.83;;
32874;SDS011;40468;42.128;24.750;2024-01-15T07:07:55;51.83;;;23.80;;
32874;SDS011;40468;42.128;24.750;2024-01-15T07:09:27;63.75;;;24.10;;
32874;SDS011;40468;42.128;24.750;2024-01-15T07:10:59;70.93;;;36.45;;
32874;SDS011;40468;42.128;24.750;2024-01-15T07:12:33;65.18;;;26.38;;
32874;SDS011;40468;42.128;24.750;2024-01-15T07:14:06;66.53;;;26.67;;
32874;SDS011;40468;42.128;24.750;2024-01-15T07:15:37;63.03;;;28.05;;
32874;SDS011;40468;42.128;24.750;2024-01-15T07:17:09;69.25;;;28.38;;
32874;SDS011;40468;42.128;24.750;2024-01-15T07:18:40;66.72;;;27.73;;
32874;SDS011;40468;42.128;24.750;2024-01-15T07:20:12;77.70;;;29.02;;
32874;SDS011;40468;42.128;24.750;2024-01-15T07:21:43;71.10;;;28.17;;
32874;SDS011;40468;42.128;24.750;2024-01-15T07:23:15;77.78;;;29.20;;
32874;SDS011;40468;42.128;24.750;2024-01-15T07:24:46;77.50;;;30.23;;
32874;SDS011;40468;42.128;24.750;2024-01-15T07:26:18;70.85;;;29.50;;
32874;SDS011;40468;42.128;24.750;2024-01-15T07:27:49;72.82;;;27.80;;
32874;SDS011;40468;42.128;24.750;2024-01-15T07:29:22;70.78;;;27.95;;
32874;SDS011;40468;42.128;24.750;2024-01-15T07:30:53;67.25;;;28.02;;
32874;SDS011;40468;42.128;24.750;2024-01-15T07:32:25;72.88;;;28.10;;
32874;SDS011;40468;42.128;24.750;2024-01-15T07:33:56;64.32;;;27.17;;
32874;SDS011;40468;42.128;24.750;2024-01-15T07:35:28;66.13;;;27.75;;
32874;SDS011;40468;42.128;24.750;2024-01-15T07:36:59;72.82;;;27.98;;
32874;SDS011;40468;42.128;24.750;2024-01-15T07:38:31;73.88;;;28.08;;
32874;SDS011;40468;42.128;24.750;2024-01-15T07:40:02;74.80;;;31.33;;
32874;SDS011;40468;42.128;24.750;2024-01-15T07:41:36;71.18;;;30.13;;
32874;SDS011;40468;42.128;24.750;2024-01-15T07:43:07;77.10;;;30.35;;
32874;SDS011;40468;42.128;24.750;2024-01-15T07:44:40;76.30;;;32.33;;
32874;SDS011;40468;42.128;24.750;2024-01-15T07:46:13;66.82;;;28.38;;
32874;SDS011;40468;42.128;24.750;2024-01-15T07:47:45;84.72;;;31.55;;
32874;SDS011;40468;42.128;24.750;2024-01-15T07:49:16;70.15;;;28.13;;
32874;SDS011;40468;42.128;24.750;2024-01-15T07:50:48;76.57;;;28.48;;
32874;SDS011;40468;42.128;24.750;2024-01-15T07:52:19;63.08;;;26.63;;
32874;SDS011;40468;42.128;24.750;2024-01-15T07:53:53;76.05;;;27.67;;
32874;SDS011;40468;42.128;24.750;2024-01-15T07:55:25;70.78;;;27.45;;
32874;SDS011;40468;42.128;24.750;2024-01-15T07:56:57;76.05;;;28.45;;
32874;SDS011;40468;42.128;24.750;2024-01-15T07:58:29;68.30;;;29.15;;
32874;SDS011;40468;42.128;24.750;2024-01-15T08:00:02;70.95;;;30.00;;
32874;SDS011;40468;42.128;24.750;2024-01-15T08:01:35;66.30;;;28.02;;
32874;SDS011;40468;42.128;24.750;2024-01-15T08:03:07;72.90;;;27.65;;
32874;SDS011;40468;42.128;24.750;2024-01-15T08:04:40;66.15;;;27.67;;
32874;SDS011;40468;42.128;24.750;2024-01-15T08:06:12;65.97;;;27.80;;
32874;SDS011;40468;42.128;24.750;2024-01-15T08:07:44;71.85;;;28.65;;
32874;SDS011;40468;42.128;24.750;2024-01-15T08:09:15;68.25;;;28.50;;
32874;SDS011;40468;42.128;24.750;2024-01-15T08:10:46;65.50;;;28.63;;
32874;SDS011;40468;42.128;24.750;2024-01-15T08:12:18;69.80;;;30.40;;
32874;SDS011;40468;42.128;24.750;2024-01-15T08:13:49;74.93;;;30.48;;
32874;SDS011;40468;42.128;24.750;2024-01-15T08:15:24;82.47;;;32.38;;
32874;SDS011;40468;42.128;24.750;2024-01-15T08:17:10;75.70;;;31.65;;
32874;SDS011;40468;42.128;24.750;2024-01-15T08:18:46;77.32;;;32.67;;
32874;SDS011;40468;42.128;24.750;2024-01-15T08:20:23;75.82;;;32.72;;
32874;SDS011;40468;42.128;24.750;2024-01-15T08:22:05;69.78;;;31.92;;
32874;SDS011;40468;42.128;24.750;2024-01-15T08:23:54;78.85;;;29.67;;
32874;SDS011;40468;42.128;24.750;2024-01-15T08:25:41;74.47;;;31.58;;
32874;SDS011;40468;42.128;24.750;2024-01-15T08:27:14;75.25;;;31.13;;
32874;SDS011;40468;42.128;24.750;2024-01-15T08:28:45;70.20;;;30.73;;
32874;SDS011;40468;42.128;24.750;2024-01-15T08:30:17;67.60;;;29.40;;
32874;SDS011;40468;42.128;24.750;2024-01-15T08:31:50;66.30;;;27.85;;
32874;SDS011;40468;42.128;24.750;2024-01-15T08:34:53;65.50;;;27.23;;
32874;SDS011;40468;42.128;24.750;2024-01-15T08:36:25;73.15;;;30.75;;
32874;SDS011;40468;42.128;24.750;2024-01-15T08:37:56;67.90;;;28.00;;
32874;SDS011;40468;42.128;24.750;2024-01-15T08:39:28;64.82;;;27.98;;
32874;SDS011;40468;42.128;24.750;2024-01-15T08:41:00;62.85;;;27.02;;
32874;SDS011;40468;42.128;24.750;2024-01-15T08:42:31;75.18;;;29.08;;
32874;SDS011;40468;42.128;24.750;2024-01-15T08:44:05;66.97;;;28.23;;
32874;SDS011;40468;42.128;24.750;2024-01-15T08:45:38;61.50;;;27.98;;
32874;SDS011;40468;42.128;24.750;2024-01-15T08:47:10;61.00;;;27.23;;
32874;SDS011;40468;42.128;24.750;2024-01-15T08:48:42;67.45;;;28.17;;
32874;SDS011;40468;42.128;24.750;2024-01-15T08:50:14;61.35;;;27.27;;
32874;SDS011;40468;42.128;24.750;2024-01-15T08:51:46;61.97;;;26.92;;
32874;SDS011;40468;42.128;24.750;2024-01-15T08:53:18;60.53;;;26.45;;
32874;SDS011;40468;42.128;24.750;2024-01-15T08:54:50;63.65;;;28.80;;